Hartfield, United Kingdom
Current Conditions -  °F | °C
As of 9:50 PM on Friday 24 Oct 2014 (Local Time) from EGKK Reporting Station
Scattered Clouds Scattered Clouds  
Wind Chill: 57°   Ceiling: Unl
Heat Index: 57°   Visibility: 6mi
Dew Point: 55°   Wind: 9mph
Humidity: 94%   Direction: 270°W
Pressure: 29.97"   Gusts: NA
Location:  51.1°N, 0.11°E
Report Text: EGKK 242050Z 27008KT 9999 FEW015 SCT030 14/13 Q1015
Loading
Personal Weather Stations






























Interactive Weather Map New forecast layout! Learn more

10-Day Weather Forecast

Advertisements
Track Severe Weather on mobile